sensor_id;sensor_type;location;lat;lon;timestamp;pressure;altitude;pressure_sealevel;temperature;humidity
27840;BME280;15207;42.182;24.308;2023-01-29T00:01:21;99382.41;;;3.74;74.28
27840;BME280;15207;42.182;24.308;2023-01-29T00:03:49;99380.91;;;3.68;74.35
27840;BME280;15207;42.182;24.308;2023-01-29T00:06:15;99380.81;;;3.70;73.58
27840;BME280;15207;42.182;24.308;2023-01-29T00:08:40;99385.88;;;3.57;73.85
27840;BME280;15207;42.182;24.308;2023-01-29T00:11:07;99383.03;;;3.42;74.58
27840;BME280;15207;42.182;24.308;2023-01-29T00:13:33;99404.75;;;3.32;75.60
27840;BME280;15207;42.182;24.308;2023-01-29T00:15:59;99385.09;;;3.36;75.39
27840;BME280;15207;42.182;24.308;2023-01-29T00:18:26;99396.34;;;3.41;75.27
27840;BME280;15207;42.182;24.308;2023-01-29T00:20:52;99400.19;;;3.53;74.76
27840;BME280;15207;42.182;24.308;2023-01-29T00:23:18;99401.56;;;3.62;74.46
27840;BME280;15207;42.182;24.308;2023-01-29T00:25:44;99406.13;;;3.58;74.29
27840;BME280;15207;42.182;24.308;2023-01-29T00:28:10;99409.84;;;3.54;75.04
27840;BME280;15207;42.182;24.308;2023-01-29T00:30:37;99402.56;;;3.59;74.40
27840;BME280;15207;42.182;24.308;2023-01-29T00:33:03;99406.06;;;3.60;74.88
27840;BME280;15207;42.182;24.308;2023-01-29T00:35:28;99413.16;;;3.59;74.27
27840;BME280;15207;42.182;24.308;2023-01-29T00:37:54;99413.19;;;3.77;74.58
27840;BME280;15207;42.182;24.308;2023-01-29T00:40:20;99409.75;;;3.75;74.04
27840;BME280;15207;42.182;24.308;2023-01-29T00:42:47;99406.78;;;3.81;74.12
27840;BME280;15207;42.182;24.308;2023-01-29T00:45:32;99415.59;;;3.81;73.56
27840;BME280;15207;42.182;24.308;2023-01-29T00:47:58;99423.69;;;3.78;74.03
27840;BME280;15207;42.182;24.308;2023-01-29T00:50:24;99422.19;;;3.73;74.28
27840;BME280;15207;42.182;24.308;2023-01-29T00:52:49;99424.25;;;3.85;73.82
27840;BME280;15207;42.182;24.308;2023-01-29T00:55:16;99420.81;;;3.83;73.89
27840;BME280;15207;42.182;24.308;2023-01-29T00:57:41;99414.69;;;3.82;74.44
27840;BME280;15207;42.182;24.308;2023-01-29T01:00:09;99422.38;;;3.69;74.30
27840;BME280;15207;42.182;24.308;2023-01-29T01:02:35;99415.91;;;3.75;74.33
27840;BME280;15207;42.182;24.308;2023-01-29T01:05:19;99433.09;;;3.66;74.79
27840;BME280;15207;42.182;24.308;2023-01-29T01:07:52;99418.53;;;3.75;75.19
27840;BME280;15207;42.182;24.308;2023-01-29T01:10:27;99423.06;;;3.73;74.60
27840;BME280;15207;42.182;24.308;2023-01-29T01:13:04;99424.53;;;3.61;75.00
27840;BME280;15207;42.182;24.308;2023-01-29T01:15:33;99418.97;;;3.85;75.36
27840;BME280;15207;42.182;24.308;2023-01-29T01:18:01;99415.47;;;4.02;74.69
27840;BME280;15207;42.182;24.308;2023-01-29T01:20:29;99424.69;;;4.13;73.80
27840;BME280;15207;42.182;24.308;2023-01-29T01:22:55;99417.75;;;4.10;73.25
27840;BME280;15207;42.182;24.308;2023-01-29T01:25:22;99414.28;;;4.08;73.84
27840;BME280;15207;42.182;24.308;2023-01-29T01:27:52;99420.16;;;4.15;73.78
27840;BME280;15207;42.182;24.308;2023-01-29T01:30:17;99417.81;;;4.08;74.39
27840;BME280;15207;42.182;24.308;2023-01-29T01:32:43;99420.41;;;4.10;73.89
27840;BME280;15207;42.182;24.308;2023-01-29T01:35:09;99424.59;;;3.96;73.64
27840;BME280;15207;42.182;24.308;2023-01-29T01:37:35;99420.38;;;3.92;74.59
27840;BME280;15207;42.182;24.308;2023-01-29T01:40:17;99422.25;;;3.90;74.98
27840;BME280;15207;42.182;24.308;2023-01-29T01:42:46;99414.13;;;3.93;76.01
27840;BME280;15207;42.182;24.308;2023-01-29T01:45:33;99420.16;;;3.97;76.07
27840;BME280;15207;42.182;24.308;2023-01-29T01:53:01;99418.66;;;3.91;77.51
27840;BME280;15207;42.182;24.308;2023-01-29T01:55:29;99421.38;;;3.90;77.89
27840;BME280;15207;42.182;24.308;2023-01-29T01:57:59;99409.84;;;3.91;77.77
27840;BME280;15207;42.182;24.308;2023-01-29T02:00:27;99419.81;;;3.86;78.04
27840;BME280;15207;42.182;24.308;2023-01-29T02:02:53;99423.13;;;3.72;77.90
27840;BME280;15207;42.182;24.308;2023-01-29T02:05:38;99427.09;;;3.63;78.92
27840;BME280;15207;42.182;24.308;2023-01-29T02:08:33;99429.31;;;3.72;78.61
27840;BME280;15207;42.182;24.308;2023-01-29T02:11:19;99420.50;;;3.72;78.84
27840;BME280;15207;42.182;24.308;2023-01-29T02:13:45;99423.00;;;3.75;78.17
27840;BME280;15207;42.182;24.308;2023-01-29T02:16:10;99430.38;;;3.68;78.52
27840;BME280;15207;42.182;24.308;2023-01-29T02:18:36;99426.78;;;3.69;79.16
27840;BME280;15207;42.182;24.308;2023-01-29T02:29:09;99443.44;;;3.53;78.00
27840;BME280;15207;42.182;24.308;2023-01-29T02:37:33;99450.75;;;3.48;78.11
27840;BME280;15207;42.182;24.308;2023-01-29T02:40:11;99453.44;;;3.47;78.23
27840;BME280;15207;42.182;24.308;2023-01-29T02:45:43;99457.00;;;3.65;77.43
27840;BME280;15207;42.182;24.308;2023-01-29T02:48:16;99452.97;;;3.57;78.25
27840;BME280;15207;42.182;24.308;2023-01-29T02:50:56;99454.16;;;3.69;77.41
27840;BME280;15207;42.182;24.308;2023-01-29T02:53:34;99454.94;;;3.72;76.40
27840;BME280;15207;42.182;24.308;2023-01-29T02:56:08;99457.94;;;3.64;77.09
27840;BME280;15207;42.182;24.308;2023-01-29T02:59:03;99453.03;;;3.56;77.62
27840;BME280;15207;42.182;24.308;2023-01-29T03:01:36;99455.66;;;3.56;78.06
27840;BME280;15207;42.182;24.308;2023-01-29T03:04:10;99463.75;;;3.53;77.67
27840;BME280;15207;42.182;24.308;2023-01-29T03:06:40;99455.59;;;3.57;77.94
27840;BME280;15207;42.182;24.308;2023-01-29T03:09:12;99467.13;;;3.56;78.39
27840;BME280;15207;42.182;24.308;2023-01-29T03:11:45;99464.03;;;3.47;78.75
27840;BME280;15207;42.182;24.308;2023-01-29T03:14:21;99461.47;;;3.45;79.59
27840;BME280;15207;42.182;24.308;2023-01-29T03:16:52;99469.94;;;3.34;80.36
27840;BME280;15207;42.182;24.308;2023-01-29T03:19:35;99468.34;;;3.49;80.85
27840;BME280;15207;42.182;24.308;2023-01-29T03:22:04;99474.34;;;3.53;81.50
27840;BME280;15207;42.182;24.308;2023-01-29T03:24:44;99477.34;;;3.45;82.54
27840;BME280;15207;42.182;24.308;2023-01-29T03:27:39;99484.22;;;3.49;82.73
27840;BME280;15207;42.182;24.308;2023-01-29T03:30:26;99488.19;;;3.40;83.04
27840;BME280;15207;42.182;24.308;2023-01-29T03:33:13;99479.22;;;3.43;85.24
27840;BME280;15207;42.182;24.308;2023-01-29T03:35:50;99484.38;;;3.46;85.88
27840;BME280;15207;42.182;24.308;2023-01-29T03:38:18;99486.16;;;3.46;86.15
27840;BME280;15207;42.182;24.308;2023-01-29T03:40:52;99495.03;;;3.25;86.74
27840;BME280;15207;42.182;24.308;2023-01-29T03:43:24;99483.31;;;3.31;87.64
27840;BME280;15207;42.182;24.308;2023-01-29T03:48:35;99489.59;;;3.48;87.27
27840;BME280;15207;42.182;24.308;2023-01-29T03:51:34;99487.09;;;3.44;86.80
27840;BME280;15207;42.182;24.308;2023-01-29T03:56:33;99487.88;;;3.66;86.19
27840;BME280;15207;42.182;24.308;2023-01-29T04:02:18;99486.38;;;3.60;87.15
27840;BME280;15207;42.182;24.308;2023-01-29T04:04:47;99491.16;;;3.52;86.83
27840;BME280;15207;42.182;24.308;2023-01-29T04:07:19;99485.88;;;3.52;87.25
27840;BME280;15207;42.182;24.308;2023-01-29T04:09:58;99490.59;;;3.64;88.01
27840;BME280;15207;42.182;24.308;2023-01-29T04:12:32;99495.81;;;3.66;87.22
27840;BME280;15207;42.182;24.308;2023-01-29T04:15:03;99486.72;;;3.72;86.83
27840;BME280;15207;42.182;24.308;2023-01-29T04:17:34;99497.25;;;3.73;87.04
27840;BME280;15207;42.182;24.308;2023-01-29T04:20:02;99488.78;;;3.84;86.24
27840;BME280;15207;42.182;24.308;2023-01-29T04:22:36;99504.84;;;3.81;85.77
27840;BME280;15207;42.182;24.308;2023-01-29T04:25:14;99497.66;;;3.83;85.63
27840;BME280;15207;42.182;24.308;2023-01-29T04:28:12;99498.47;;;3.66;84.95
27840;BME280;15207;42.182;24.308;2023-01-29T04:41:34;99508.63;;;3.75;83.78
27840;BME280;15207;42.182;24.308;2023-01-29T04:44:36;99508.50;;;3.78;84.00
27840;BME280;15207;42.182;24.308;2023-01-29T04:47:35;99513.28;;;3.70;84.20
27840;BME280;15207;42.182;24.308;2023-01-29T04:50:16;99512.81;;;3.62;84.23
27840;BME280;15207;42.182;24.308;2023-01-29T04:52:54;99511.06;;;3.61;84.50
27840;BME280;15207;42.182;24.308;2023-01-29T05:00:52;99517.22;;;3.61;84.43
27840;BME280;15207;42.182;24.308;2023-01-29T05:03:21;99513.44;;;3.67;84.06
27840;BME280;15207;42.182;24.308;2023-01-29T05:05:47;99512.88;;;3.60;83.91
27840;BME280;15207;42.182;24.308;2023-01-29T05:08:18;99516.94;;;3.67;84.05
27840;BME280;15207;42.182;24.308;2023-01-29T05:10:47;99519.28;;;3.74;83.65
27840;BME280;15207;42.182;24.308;2023-01-29T05:13:14;99524.69;;;3.72;83.13
27840;BME280;15207;42.182;24.308;2023-01-29T05:15:47;99519.88;;;3.61;82.80
27840;BME280;15207;42.182;24.308;2023-01-29T05:18:14;99520.25;;;3.53;83.17
27840;BME280;15207;42.182;24.308;2023-01-29T05:20:42;99522.16;;;3.30;83.34
27840;BME280;15207;42.182;24.308;2023-01-29T05:23:09;99523.38;;;3.42;83.75
27840;BME280;15207;42.182;24.308;2023-01-29T05:25:36;99529.31;;;3.48;83.41
27840;BME280;15207;42.182;24.308;2023-01-29T05:28:01;99534.69;;;3.46;83.30
27840;BME280;15207;42.182;24.308;2023-01-29T05:30:32;99535.13;;;3.56;84.40
27840;BME280;15207;42.182;24.308;2023-01-29T05:32:58;99536.19;;;3.71;83.10
27840;BME280;15207;42.182;24.308;2023-01-29T05:35:24;99539.00;;;3.68;82.68
27840;BME280;15207;42.182;24.308;2023-01-29T05:37:50;99543.94;;;3.76;82.89
27840;BME280;15207;42.182;24.308;2023-01-29T05:40:16;99545.72;;;3.56;82.22
27840;BME280;15207;42.182;24.308;2023-01-29T05:42:41;99548.72;;;3.48;82.02
27840;BME280;15207;42.182;24.308;2023-01-29T05:45:07;99557.59;;;3.47;82.52
27840;BME280;15207;42.182;24.308;2023-01-29T05:47:33;99556.88;;;3.43;83.33
27840;BME280;15207;42.182;24.308;2023-01-29T05:49:58;99558.53;;;3.65;83.47
27840;BME280;15207;42.182;24.308;2023-01-29T05:52:24;99559.97;;;3.73;84.06
27840;BME280;15207;42.182;24.308;2023-01-29T05:54:49;99559.25;;;3.69;83.69
27840;BME280;15207;42.182;24.308;2023-01-29T05:57:14;99553.66;;;3.75;83.44
27840;BME280;15207;42.182;24.308;2023-01-29T05:59:40;99573.03;;;3.77;83.17
27840;BME280;15207;42.182;24.308;2023-01-29T06:02:05;99566.78;;;3.78;82.75
27840;BME280;15207;42.182;24.308;2023-01-29T06:04:31;99574.72;;;3.78;82.45
27840;BME280;15207;42.182;24.308;2023-01-29T06:06:57;99580.81;;;3.61;83.00
27840;BME280;15207;42.182;24.308;2023-01-29T06:09:22;99581.69;;;3.62;83.25
27840;BME280;15207;42.182;24.308;2023-01-29T06:11:48;99583.75;;;3.55;83.78
27840;BME280;15207;42.182;24.308;2023-01-29T06:14:13;99591.91;;;3.69;83.81
27840;BME280;15207;42.182;24.308;2023-01-29T06:16:39;99589.63;;;3.81;83.79
27840;BME280;15207;42.182;24.308;2023-01-29T06:19:04;99594.28;;;3.95;83.13
27840;BME280;15207;42.182;24.308;2023-01-29T06:21:30;99594.22;;;3.96;82.27
27840;BME280;15207;42.182;24.308;2023-01-29T06:23:55;99596.50;;;4.04;81.62
27840;BME280;15207;42.182;24.308;2023-01-29T06:26:21;99593.59;;;4.09;81.33
27840;BME280;15207;42.182;24.308;2023-01-29T06:28:49;99603.50;;;4.05;81.70
27840;BME280;15207;42.182;24.308;2023-01-29T06:31:15;99608.75;;;4.07;81.93
27840;BME280;15207;42.182;24.308;2023-01-29T06:33:40;99607.03;;;4.06;81.10
27840;BME280;15207;42.182;24.308;2023-01-29T06:36:06;99605.22;;;3.87;80.64
27840;BME280;15207;42.182;24.308;2023-01-29T06:38:32;99619.47;;;4.04;81.81
27840;BME280;15207;42.182;24.308;2023-01-29T06:40:57;99622.78;;;4.09;81.41
27840;BME280;15207;42.182;24.308;2023-01-29T06:43:23;99632.66;;;4.05;82.23
27840;BME280;15207;42.182;24.308;2023-01-29T06:45:56;99625.28;;;4.12;83.12
27840;BME280;15207;42.182;24.308;2023-01-29T06:48:23;99624.56;;;4.28;83.79
27840;BME280;15207;42.182;24.308;2023-01-29T06:50:49;99629.88;;;4.28;82.39
27840;BME280;15207;42.182;24.308;2023-01-29T06:53:16;99626.13;;;4.32;82.95
27840;BME280;15207;42.182;24.308;2023-01-29T06:55:43;99636.69;;;4.14;82.71
27840;BME280;15207;42.182;24.308;2023-01-29T06:58:10;99640.78;;;4.02;83.86
27840;BME280;15207;42.182;24.308;2023-01-29T07:00:37;99644.97;;;4.06;85.61
27840;BME280;15207;42.182;24.308;2023-01-29T07:03:03;99648.34;;;3.91;85.50
27840;BME280;15207;42.182;24.308;2023-01-29T07:05:29;99643.78;;;3.94;86.67
27840;BME280;15207;42.182;24.308;2023-01-29T07:07:55;99651.16;;;4.07;86.43
27840;BME280;15207;42.182;24.308;2023-01-29T07:10:21;99647.56;;;4.08;87.49
27840;BME280;15207;42.182;24.308;2023-01-29T07:12:46;99652.00;;;4.27;87.97
27840;BME280;15207;42.182;24.308;2023-01-29T07:15:11;99645.28;;;4.39;88.75
27840;BME280;15207;42.182;24.308;2023-01-29T07:17:38;99651.28;;;4.42;87.44
27840;BME280;15207;42.182;24.308;2023-01-29T07:20:04;99648.28;;;4.31;86.07
27840;BME280;15207;42.182;24.308;2023-01-29T07:22:30;99654.81;;;4.23;86.94
27840;BME280;15207;42.182;24.308;2023-01-29T07:24:55;99661.69;;;4.08;87.56
27840;BME280;15207;42.182;24.308;2023-01-29T07:27:21;99661.28;;;4.18;89.76
27840;BME280;15207;42.182;24.308;2023-01-29T07:29:46;99668.56;;;4.32;89.32
27840;BME280;15207;42.182;24.308;2023-01-29T07:32:11;99663.56;;;4.26;89.30
27840;BME280;15207;42.182;24.308;2023-01-29T07:34:37;99666.91;;;4.29;89.19
27840;BME280;15207;42.182;24.308;2023-01-29T07:37:02;99671.63;;;4.42;90.00
27840;BME280;15207;42.182;24.308;2023-01-29T07:39:30;99670.03;;;4.57;89.64
27840;BME280;15207;42.182;24.308;2023-01-29T07:41:55;99677.50;;;4.48;88.58
27840;BME280;15207;42.182;24.308;2023-01-29T07:44:21;99666.78;;;4.32;89.47
27840;BME280;15207;42.182;24.308;2023-01-29T07:46:46;99667.84;;;4.47;90.02
27840;BME280;15207;42.182;24.308;2023-01-29T07:49:12;99675.94;;;4.25;90.85
27840;BME280;15207;42.182;24.308;2023-01-29T07:51:37;99675.94;;;4.25;91.42
27840;BME280;15207;42.182;24.308;2023-01-29T07:54:03;99668.50;;;4.33;92.86
27840;BME280;15207;42.182;24.308;2023-01-29T07:56:28;99669.97;;;4.39;93.63
27840;BME280;15207;42.182;24.308;2023-01-29T07:58:54;99686.47;;;4.46;93.47
27840;BME280;15207;42.182;24.308;2023-01-29T08:01:20;99686.34;;;4.49;93.04
27840;BME280;15207;42.182;24.308;2023-01-29T08:03:45;99686.69;;;4.41;91.95
27840;BME280;15207;42.182;24.308;2023-01-29T08:06:10;99690.44;;;4.37;92.04
27840;BME280;15207;42.182;24.308;2023-01-29T08:08:36;99690.06;;;4.45;93.40
27840;BME280;15207;42.182;24.308;2023-01-29T08:11:02;99686.91;;;4.56;94.90
27840;BME280;15207;42.182;24.308;2023-01-29T08:13:28;99687.84;;;4.55;94.61
27840;BME280;15207;42.182;24.308;2023-01-29T08:15:58;99688.63;;;4.57;94.27
27840;BME280;15207;42.182;24.308;2023-01-29T08:18:23;99694.06;;;4.54;93.16
27840;BME280;15207;42.182;24.308;2023-01-29T08:20:49;99698.16;;;4.61;93.41
27840;BME280;15207;42.182;24.308;2023-01-29T08:23:14;99694.81;;;4.57;94.24
27840;BME280;15207;42.182;24.308;2023-01-29T08:25:40;99697.91;;;4.66;94.97
27840;BME280;15207;42.182;24.308;2023-01-29T08:28:06;99695.13;;;4.69;93.88
27840;BME280;15207;42.182;24.308;2023-01-29T08:30:33;99698.94;;;4.63;93.11
27840;BME280;15207;42.182;24.308;2023-01-29T08:32:59;99697.78;;;4.69;92.88
27840;BME280;15207;42.182;24.308;2023-01-29T08:35:25;99693.69;;;4.81;93.74
27840;BME280;15207;42.182;24.308;2023-01-29T08:37:53;99695.84;;;4.72;93.42
27840;BME280;15207;42.182;24.308;2023-01-29T08:40:19;99699.63;;;4.86;93.92
27840;BME280;15207;42.182;24.308;2023-01-29T08:42:45;99706.91;;;5.00;94.59
27840;BME280;15207;42.182;24.308;2023-01-29T08:45:10;99698.63;;;5.06;93.57
27840;BME280;15207;42.182;24.308;2023-01-29T08:47:36;99706.75;;;5.03;94.66
27840;BME280;15207;42.182;24.308;2023-01-29T08:50:02;99706.19;;;5.14;93.69
27840;BME280;15207;42.182;24.308;2023-01-29T08:52:28;99704.78;;;5.24;92.86
27840;BME280;15207;42.182;24.308;2023-01-29T08:54:53;99709.03;;;5.28;93.09
27840;BME280;15207;42.182;24.308;2023-01-29T08:57:18;99703.09;;;5.41;92.76
27840;BME280;15207;42.182;24.308;2023-01-29T08:59:44;99711.28;;;5.54;93.63
27840;BME280;15207;42.182;24.308;2023-01-29T09:02:10;99709.25;;;5.59;93.09
27840;BME280;15207;42.182;24.308;2023-01-29T09:04:35;99710.97;;;5.60;92.76
27840;BME280;15207;42.182;24.308;2023-01-29T09:07:01;99704.16;;;5.72;92.40
27840;BME280;15207;42.182;24.308;2023-01-29T09:09:26;99704.91;;;5.74;91.30
27840;BME280;15207;42.182;24.308;2023-01-29T09:11:51;99701.66;;;5.69;90.57
27840;BME280;15207;42.182;24.308;2023-01-29T09:14:17;99700.47;;;5.92;92.16
27840;BME280;15207;42.182;24.308;2023-01-29T09:16:42;99704.38;;;6.03;91.27
27840;BME280;15207;42.182;24.308;2023-01-29T09:19:08;99699.56;;;6.09;89.41
27840;BME280;15207;42.182;24.308;2023-01-29T09:21:33;99691.41;;;6.13;89.42
27840;BME280;15207;42.182;24.308;2023-01-29T09:23:59;99696.47;;;6.17;89.15
27840;BME280;15207;42.182;24.308;2023-01-29T09:26:24;99694.00;;;6.14;88.13
27840;BME280;15207;42.182;24.308;2023-01-29T09:28:50;99704.56;;;6.16;89.28
27840;BME280;15207;42.182;24.308;2023-01-29T09:31:15;99694.00;;;6.14;88.21
27840;BME280;15207;42.182;24.308;2023-01-29T09:33:41;99697.19;;;6.21;88.19
27840;BME280;15207;42.182;24.308;2023-01-29T09:36:07;99690.56;;;6.28;87.14
27840;BME280;15207;42.182;24.308;2023-01-29T09:38:32;99680.81;;;6.29;88.19
27840;BME280;15207;42.182;24.308;2023-01-29T09:44:11;99674.34;;;6.49;85.16
27840;BME280;15207;42.182;24.308;2023-01-29T09:46:41;99671.03;;;6.61;85.50
27840;BME280;15207;42.182;24.308;2023-01-29T09:51:56;99669.88;;;6.82;84.93
27840;BME280;15207;42.182;24.308;2023-01-29T09:54:32;99668.56;;;6.89;85.34
27840;BME280;15207;42.182;24.308;2023-01-29T09:56:59;99668.13;;;6.97;81.45
27840;BME280;15207;42.182;24.308;2023-01-29T09:59:30;99666.13;;;7.00;82.18
27840;BME280;15207;42.182;24.308;2023-01-29T10:12:56;99638.06;;;6.95;77.51
27840;BME280;15207;42.182;24.308;2023-01-29T10:21:48;99633.59;;;6.95;75.37
27840;BME280;15207;42.182;24.308;2023-01-29T10:24:29;99626.88;;;7.04;76.41
27840;BME280;15207;42.182;24.308;2023-01-29T10:26:58;99624.56;;;6.98;72.67
27840;BME280;15207;42.182;24.308;2023-01-29T10:29:25;99619.16;;;6.99;75.27
27840;BME280;15207;42.182;24.308;2023-01-29T10:31:56;99617.84;;;7.07;77.09
27840;BME280;15207;42.182;24.308;2023-01-29T10:34:37;99612.97;;;6.99;73.76
27840;BME280;15207;42.182;24.308;2023-01-29T10:37:17;99612.53;;;6.76;74.34
27840;BME280;15207;42.182;24.308;2023-01-29T10:39:44;99612.16;;;6.82;74.95
27840;BME280;15207;42.182;24.308;2023-01-29T11:01:09;99585.66;;;6.95;69.38
27840;BME280;15207;42.182;24.308;2023-01-29T11:03:35;99589.66;;;6.88;66.25
27840;BME280;15207;42.182;24.308;2023-01-29T11:06:23;99579.63;;;6.77;68.10
27840;BME280;15207;42.182;24.308;2023-01-29T11:08:57;99576.47;;;6.70;67.94
27840;BME280;15207;42.182;24.308;2023-01-29T11:14:08;99582.00;;;6.51;67.84
27840;BME280;15207;42.182;24.308;2023-01-29T11:16:42;99576.50;;;6.54;69.63
27840;BME280;15207;42.182;24.308;2023-01-29T11:19:08;99589.53;;;6.59;67.41
27840;BME280;15207;42.182;24.308;2023-01-29T11:21:58;99576.75;;;6.66;68.61
27840;BME280;15207;42.182;24.308;2023-01-29T11:24:25;99575.78;;;6.67;71.95
27840;BME280;15207;42.182;24.308;2023-01-29T11:26:53;99571.47;;;6.80;70.96
27840;BME280;15207;42.182;24.308;2023-01-29T11:29:37;99570.22;;;6.86;71.19
27840;BME280;15207;42.182;24.308;2023-01-29T11:32:23;99557.88;;;6.85;69.60
27840;BME280;15207;42.182;24.308;2023-01-29T11:35:03;99560.13;;;6.77;69.27
27840;BME280;15207;42.182;24.308;2023-01-29T11:37:38;99556.88;;;6.71;69.09
27840;BME280;15207;42.182;24.308;2023-01-29T11:42:49;99549.34;;;6.64;65.15
27840;BME280;15207;42.182;24.308;2023-01-29T11:45:27;99555.78;;;6.59;67.15
27840;BME280;15207;42.182;24.308;2023-01-29T11:47:57;99546.97;;;6.59;66.17
27840;BME280;15207;42.182;24.308;2023-01-29T11:50:28;99545.25;;;6.58;66.88
27840;BME280;15207;42.182;24.308;2023-01-29T11:52:55;99539.28;;;6.69;68.49
27840;BME280;15207;42.182;24.308;2023-01-29T11:55:23;99547.19;;;6.70;67.35
27840;BME280;15207;42.182;24.308;2023-01-29T11:58:03;99537.81;;;6.94;68.31
27840;BME280;15207;42.182;24.308;2023-01-29T12:00:32;99547.34;;;6.98;66.74
27840;BME280;15207;42.182;24.308;2023-01-29T12:05:38;99541.47;;;7.22;65.73
27840;BME280;15207;42.182;24.308;2023-01-29T12:08:15;99540.44;;;7.39;62.31
27840;BME280;15207;42.182;24.308;2023-01-29T12:10:42;99536.34;;;7.33;63.79
27840;BME280;15207;42.182;24.308;2023-01-29T12:15:38;99526.34;;;7.51;63.59
27840;BME280;15207;42.182;24.308;2023-01-29T12:20:52;99530.19;;;7.75;57.12
27840;BME280;15207;42.182;24.308;2023-01-29T12:26:12;99513.56;;;7.71;58.70
27840;BME280;15207;42.182;24.308;2023-01-29T12:34:31;99507.69;;;8.21;58.90
27840;BME280;15207;42.182;24.308;2023-01-29T12:39:43;99513.50;;;8.28;57.18
27840;BME280;15207;42.182;24.308;2023-01-29T12:42:22;99507.00;;;8.04;56.23
27840;BME280;15207;42.182;24.308;2023-01-29T12:44:52;99505.06;;;8.06;55.33
27840;BME280;15207;42.182;24.308;2023-01-29T12:47:47;99507.69;;;7.93;55.76
27840;BME280;15207;42.182;24.308;2023-01-29T12:50:34;99509.56;;;7.78;56.42
27840;BME280;15207;42.182;24.308;2023-01-29T12:55:43;99512.19;;;7.36;58.17
27840;BME280;15207;42.182;24.308;2023-01-29T12:58:15;99516.47;;;7.24;58.62
27840;BME280;15207;42.182;24.308;2023-01-29T13:00:48;99524.84;;;7.18;59.53
27840;BME280;15207;42.182;24.308;2023-01-29T13:08:26;99519.56;;;6.87;59.58
27840;BME280;15207;42.182;24.308;2023-01-29T13:10:54;99515.75;;;6.92;59.49
27840;BME280;15207;42.182;24.308;2023-01-29T13:15:56;99520.25;;;7.06;61.15
27840;BME280;15207;42.182;24.308;2023-01-29T13:18:32;99526.31;;;7.22;60.48
27840;BME280;15207;42.182;24.308;2023-01-29T13:21:01;99526.25;;;7.38;59.56
27840;BME280;15207;42.182;24.308;2023-01-29T13:23:50;99522.34;;;7.44;58.83
27840;BME280;15207;42.182;24.308;2023-01-29T13:26:18;99528.25;;;7.49;59.00
27840;BME280;15207;42.182;24.308;2023-01-29T13:28:46;99530.53;;;7.41;59.43
27840;BME280;15207;42.182;24.308;2023-01-29T13:31:22;99524.72;;;7.20;58.83
27840;BME280;15207;42.182;24.308;2023-01-29T13:34:12;99531.22;;;7.16;60.53
27840;BME280;15207;42.182;24.308;2023-01-29T13:36:49;99527.09;;;7.10;61.70
27840;BME280;15207;42.182;24.308;2023-01-29T13:39:23;99521.84;;;7.08;60.34
27840;BME280;15207;42.182;24.308;2023-01-29T13:41:51;99522.13;;;6.89;57.39
27840;BME280;15207;42.182;24.308;2023-01-29T13:44:25;99526.59;;;6.88;59.81
27840;BME280;15207;42.182;24.308;2023-01-29T13:47:04;99523.25;;;6.85;57.92
27840;BME280;15207;42.182;24.308;2023-01-29T13:49:38;99524.97;;;6.86;58.63
27840;BME280;15207;42.182;24.308;2023-01-29T13:52:25;99536.22;;;7.06;60.21
27840;BME280;15207;42.182;24.308;2023-01-29T13:55:01;99529.81;;;6.94;62.86
27840;BME280;15207;42.182;24.308;2023-01-29T13:57:47;99540.00;;;6.87;60.22
27840;BME280;15207;42.182;24.308;2023-01-29T14:10:41;99538.91;;;6.75;60.14
27840;BME280;15207;42.182;24.308;2023-01-29T14:18:27;99538.78;;;6.15;62.36
27840;BME280;15207;42.182;24.308;2023-01-29T14:21:00;99539.56;;;6.17;62.03
27840;BME280;15207;42.182;24.308;2023-01-29T14:23:36;99538.03;;;6.13;62.23
27840;BME280;15207;42.182;24.308;2023-01-29T14:34:33;99552.25;;;5.96;64.48
27840;BME280;15207;42.182;24.308;2023-01-29T14:37:32;99557.72;;;5.93;63.65
27840;BME280;15207;42.182;24.308;2023-01-29T14:42:58;99564.91;;;5.59;64.20
27840;BME280;15207;42.182;24.308;2023-01-29T14:45:33;99564.16;;;5.39;65.40
27840;BME280;15207;42.182;24.308;2023-01-29T14:52:58;99574.66;;;5.24;66.55
27840;BME280;15207;42.182;24.308;2023-01-29T14:55:34;99575.31;;;5.12;66.99
27840;BME280;15207;42.182;24.308;2023-01-29T14:58:02;99577.28;;;5.08;67.32
27840;BME280;15207;42.182;24.308;2023-01-29T15:00:36;99587.75;;;4.94;67.70
27840;BME280;15207;42.182;24.308;2023-01-29T15:03:12;99579.13;;;5.06;68.23
27840;BME280;15207;42.182;24.308;2023-01-29T15:05:41;99581.56;;;4.93;68.69
27840;BME280;15207;42.182;24.308;2023-01-29T15:10:56;99583.28;;;4.76;69.71
27840;BME280;15207;42.182;24.308;2023-01-29T15:13:54;99578.13;;;4.73;70.68
27840;BME280;15207;42.182;24.308;2023-01-29T15:16:29;99574.16;;;4.65;69.10
27840;BME280;15207;42.182;24.308;2023-01-29T15:19:03;99588.44;;;4.62;69.14
27840;BME280;15207;42.182;24.308;2023-01-29T15:21:32;99582.19;;;4.63;69.27
27840;BME280;15207;42.182;24.308;2023-01-29T15:24:05;99586.09;;;4.56;69.28
27840;BME280;15207;42.182;24.308;2023-01-29T15:26:32;99590.38;;;4.58;69.66
27840;BME280;15207;42.182;24.308;2023-01-29T15:28:59;99594.72;;;4.42;69.34
27840;BME280;15207;42.182;24.308;2023-01-29T15:31:26;99591.06;;;4.44;69.79
27840;BME280;15207;42.182;24.308;2023-01-29T15:33:54;99595.31;;;4.29;69.94
27840;BME280;15207;42.182;24.308;2023-01-29T15:36:26;99595.63;;;4.23;70.82
27840;BME280;15207;42.182;24.308;2023-01-29T15:41:34;99604.00;;;4.14;71.17
27840;BME280;15207;42.182;24.308;2023-01-29T15:44:00;99603.31;;;4.10;71.65
27840;BME280;15207;42.182;24.308;2023-01-29T15:46:29;99602.03;;;4.00;72.04
27840;BME280;15207;42.182;24.308;2023-01-29T15:48:59;99609.34;;;3.94;72.08
27840;BME280;15207;42.182;24.308;2023-01-29T15:51:26;99607.09;;;3.85;72.46
27840;BME280;15207;42.182;24.308;2023-01-29T15:56:41;99615.66;;;3.71;72.22
27840;BME280;15207;42.182;24.308;2023-01-29T15:59:15;99614.66;;;3.74;73.01
27840;BME280;15207;42.182;24.308;2023-01-29T16:01:42;99621.63;;;3.76;71.92